Time;durP1;ratioP1;P1;durP2;ratioP2;P2;SDS_P1;SDS_P2;PMS_P1;PMS_P2;Temp;Humidity;BMP_temperature;BMP_pressure;BME280_temperature;BME280_humidity;BME280_pressure;Samples;Min_cycle;Max_cycle;Signal;HPM_P1;HPM_P2
2023/05/05 00:01:10;;;;;;;7.43;4.60;;;23.00;41.50;;;;;;4920104;29;20251;-55
2023/05/05 00:03:36;;;;;;;5.90;5.37;;;22.90;41.00;;;;;;4918403;29;20270;-54
2023/05/05 00:06:03;;;;;;;6.37;5.43;;;22.80;40.90;;;;;;4928487;29;20201;-55
2023/05/05 00:08:28;;;;;;;6.67;6.00;;;22.90;41.60;;;;;;4925510;29;20192;-55
2023/05/05 00:10:55;;;;;;;6.00;5.20;;;22.80;41.20;;;;;;4920807;29;20481;-55
2023/05/05 00:13:21;;;;;;;6.50;5.70;;;22.80;41.50;;;;;;4915335;29;20196;-55
2023/05/05 00:15:48;;;;;;;5.20;4.80;;;22.70;41.20;;;;;;4913501;29;20879;-55
2023/05/05 00:18:15;;;;;;;5.47;5.07;;;22.70;41.80;;;;;;4921277;29;20492;-56
2023/05/05 00:20:41;;;;;;;5.90;5.30;;;22.90;41.90;;;;;;4914101;29;20449;-55
2023/05/05 00:23:07;;;;;;;5.97;5.37;;;23.00;41.60;;;;;;4912117;29;21091;-54
2023/05/05 00:25:32;;;;;;;5.63;5.17;;;23.10;41.70;;;;;;4928065;29;20445;-56
2023/05/05 00:27:58;;;;;;;5.50;5.00;;;23.20;41.70;;;;;;4927492;29;20212;-55
2023/05/05 00:30:24;;;;;;;6.10;5.27;;;23.30;41.50;;;;;;4918854;29;20240;-54
2023/05/05 00:32:50;;;;;;;8.33;6.70;;;23.40;41.40;;;;;;4917600;29;20449;-55
2023/05/05 00:35:17;;;;;;;5.70;5.20;;;23.50;41.30;;;;;;4914823;29;20201;-55
2023/05/05 00:37:43;;;;;;;4.83;4.43;;;23.50;41.20;;;;;;4906778;29;20661;-54
2023/05/05 00:40:09;;;;;;;5.30;4.50;;;23.50;41.90;;;;;;4924508;29;20532;-53
2023/05/05 00:42:46;;;;;;;6.10;5.53;;;23.60;41.20;;;;;;4922919;29;20540;-53
2023/05/05 00:45:13;;;;;;;5.23;4.73;;;23.60;41.00;;;;;;4918916;29;20961;-54
2023/05/05 00:47:41;;;;;;;5.70;5.20;;;23.60;40.80;;;;;;4923436;29;20440;-54
2023/05/05 00:50:08;;;;;;;6.03;4.57;;;23.50;40.60;;;;;;4921328;29;20453;-54
2023/05/05 00:52:37;;;;;;;7.07;4.83;;;23.20;41.20;;;;;;4933777;29;20451;-54
2023/05/05 00:55:04;;;;;;;5.93;5.47;;;23.30;42.00;;;;;;4924682;29;20487;-53
2023/05/05 00:57:31;;;;;;;5.90;5.30;;;23.30;41.00;;;;;;4925051;29;20455;-53
2023/05/05 00:59:58;;;;;;;7.23;5.40;;;23.40;40.90;;;;;;4923046;29;20497;-54
2023/05/05 01:02:24;;;;;;;6.10;5.50;;;23.50;40.80;;;;;;4921272;29;20451;-56
2023/05/05 01:04:49;;;;;;;6.57;5.20;;;23.50;40.80;;;;;;4929815;29;20444;-57
2023/05/05 01:07:40;;;;;;;5.23;4.73;;;23.60;40.80;;;;;;4926321;29;20256;-54
2023/05/05 01:10:37;;;;;;;4.40;4.07;;;23.00;41.40;;;;;;4924194;29;20249;-56
2023/05/05 01:13:21;;;;;;;6.10;5.60;;;23.00;41.70;;;;;;4916844;29;20456;-53
2023/05/05 01:15:58;;;;;;;8.27;4.60;;;23.20;41.80;;;;;;4927413;29;20453;-56
2023/05/05 01:18:40;;;;;;;8.07;6.20;;;23.40;41.50;;;;;;4926342;29;20563;-57
2023/05/05 01:21:22;;;;;;;5.53;5.13;;;23.50;41.80;;;;;;4927866;29;20456;-56
2023/05/05 01:24:12;;;;;;;7.10;5.13;;;23.60;41.00;;;;;;4927855;29;20512;-57
2023/05/05 01:26:51;;;;;;;5.87;5.37;;;23.60;41.00;;;;;;4929369;29;20520;-56
2023/05/05 01:29:30;;;;;;;7.30;6.10;;;23.60;41.00;;;;;;4929638;29;20452;-56
2023/05/05 01:32:19;;;;;;;5.73;5.20;;;23.40;40.90;;;;;;4921997;29;20457;-54
2023/05/05 01:34:55;;;;;;;4.27;3.87;;;23.30;41.30;;;;;;4923862;29;20989;-52
2023/05/05 01:37:29;;;;;;;6.77;5.43;;;23.40;41.40;;;;;;4919979;29;21041;-53
2023/05/05 01:39:58;;;;;;;8.60;6.13;;;23.40;41.30;;;;;;4917582;29;20523;-53
2023/05/05 01:42:25;;;;;;;6.77;6.07;;;23.10;41.70;;;;;;4920591;29;20947;-51
2023/05/05 01:44:52;;;;;;;8.17;6.10;;;22.90;41.90;;;;;;4922795;29;20560;-52
2023/05/05 01:47:21;;;;;;;7.67;6.90;;;22.70;42.40;;;;;;4917199;29;20484;-49
2023/05/05 01:49:48;;;;;;;5.73;5.13;;;22.40;43.10;;;;;;4921749;29;20453;-53
2023/05/05 01:52:15;;;;;;;5.90;5.40;;;22.20;43.40;;;;;;4918833;29;20456;-55
2023/05/05 01:54:45;;;;;;;6.30;5.70;;;21.80;44.10;;;;;;4918751;29;20453;-55
2023/05/05 01:57:13;;;;;;;6.20;5.60;;;21.80;44.40;;;;;;4916872;29;20459;-55
2023/05/05 01:59:39;;;;;;;6.87;6.23;;;21.80;44.40;;;;;;4922654;29;20493;-56
2023/05/05 02:02:07;;;;;;;7.63;6.10;;;21.80;44.40;;;;;;4921728;29;21333;-55
2023/05/05 02:04:35;;;;;;;6.50;5.90;;;21.80;44.50;;;;;;4918311;29;20192;-54
2023/05/05 02:07:02;;;;;;;7.50;6.67;;;21.70;44.80;;;;;;4919839;29;20511;-56
2023/05/05 02:09:29;;;;;;;7.17;6.57;;;21.70;44.90;;;;;;4912407;29;20484;-55
2023/05/05 02:11:58;;;;;;;6.87;6.20;;;21.60;44.90;;;;;;4914539;29;20468;-56
2023/05/05 02:14:27;;;;;;;6.13;5.20;;;21.60;45.10;;;;;;4916818;29;20444;-55
2023/05/05 02:16:55;;;;;;;6.13;5.53;;;21.60;45.10;;;;;;4917245;29;20448;-58
2023/05/05 02:19:27;;;;;;;12.20;5.97;;;21.60;45.20;;;;;;4914116;29;20584;-56
2023/05/05 02:21:53;;;;;;;6.87;6.23;;;21.50;45.30;;;;;;4918709;29;20440;-55
2023/05/05 02:24:18;;;;;;;6.40;5.80;;;21.40;45.50;;;;;;4917663;29;20796;-55
2023/05/05 02:26:48;;;;;;;6.40;5.90;;;21.30;45.70;;;;;;4923704;29;20284;-55
2023/05/05 02:29:20;;;;;;;6.43;5.83;;;21.40;45.70;;;;;;4917685;29;20268;-54
2023/05/05 02:31:49;;;;;;;6.40;5.80;;;21.40;45.60;;;;;;4925325;29;21014;-55
2023/05/05 02:34:24;;;;;;;7.10;6.40;;;21.40;45.70;;;;;;4920465;29;21053;-55
2023/05/05 02:36:56;;;;;;;7.10;6.30;;;21.50;45.60;;;;;;4919600;29;20464;-55
2023/05/05 02:39:34;;;;;;;8.90;7.03;;;21.50;45.60;;;;;;4914124;29;20503;-55
2023/05/05 02:42:02;;;;;;;6.60;5.97;;;21.50;45.40;;;;;;4921030;29;20436;-55
2023/05/05 02:44:30;;;;;;;6.13;5.60;;;21.50;45.60;;;;;;4925211;29;20780;-55
2023/05/05 02:46:56;;;;;;;6.03;5.53;;;21.40;45.50;;;;;;4924423;29;20456;-55
2023/05/05 02:49:22;;;;;;;6.87;6.20;;;21.50;45.80;;;;;;4919084;29;20445;-55
2023/05/05 02:51:47;;;;;;;5.63;5.13;;;21.50;45.60;;;;;;4923893;29;20450;-55
2023/05/05 02:54:13;;;;;;;6.10;5.60;;;21.40;45.70;;;;;;4928066;29;20287;-55
2023/05/05 02:56:45;;;;;;;7.30;6.60;;;21.50;45.80;;;;;;4920008;29;20654;-55
2023/05/05 02:59:47;;;;;;;6.20;5.60;;;21.40;45.80;;;;;;4925033;29;20228;-55
2023/05/05 03:02:31;;;;;;;7.67;5.70;;;21.40;46.00;;;;;;4929296;29;20451;-55
2023/05/05 03:05:08;;;;;;;6.83;6.23;;;21.30;46.00;;;;;;4927745;29;20444;-53
2023/05/05 03:07:40;;;;;;;7.60;6.33;;;21.20;46.30;;;;;;4922865;29;21896;-56
2023/05/05 03:10:10;;;;;;;6.60;6.00;;;21.20;46.50;;;;;;4933086;29;20587;-55
2023/05/05 03:12:42;;;;;;;6.40;5.90;;;21.20;46.50;;;;;;4928967;29;20979;-55
2023/05/05 03:15:09;;;;;;;6.50;5.90;;;21.20;46.40;;;;;;4927113;29;20448;-53
2023/05/05 03:17:36;;;;;;;6.73;6.13;;;21.10;46.90;;;;;;4928326;29;20445;-48
2023/05/05 03:20:04;;;;;;;6.97;6.27;;;21.00;46.70;;;;;;4925013;29;20497;-48
2023/05/05 03:22:34;;;;;;;9.43;6.30;;;21.00;46.80;;;;;;4927918;29;22079;-48
2023/05/05 03:25:00;;;;;;;6.50;5.90;;;20.90;46.80;;;;;;4931987;29;20454;-52
2023/05/05 03:27:25;;;;;;;6.77;5.90;;;20.90;47.20;;;;;;4931219;29;20445;-49
2023/05/05 03:29:51;;;;;;;7.40;6.70;;;20.80;47.40;;;;;;4933660;29;20204;-48
2023/05/05 03:32:17;;;;;;;7.20;6.50;;;20.70;47.50;;;;;;4927310;29;20724;-50
2023/05/05 03:34:42;;;;;;;6.97;6.00;;;20.50;48.10;;;;;;4926441;29;20197;-52
2023/05/05 03:37:08;;;;;;;7.00;6.40;;;20.50;48.30;;;;;;4922404;29;20264;-47
2023/05/05 03:39:33;;;;;;;9.10;6.30;;;20.50;48.40;;;;;;4928615;29;20633;-48
2023/05/05 03:41:59;;;;;;;6.70;5.97;;;20.40;48.40;;;;;;4923893;29;20205;-49
2023/05/05 03:44:24;;;;;;;9.07;6.40;;;20.40;49.00;;;;;;4925846;29;20192;-50
2023/05/05 03:46:50;;;;;;;7.90;6.60;;;20.40;48.50;;;;;;4918215;29;20700;-48
2023/05/05 03:49:15;;;;;;;8.13;7.33;;;20.40;48.50;;;;;;4918090;29;20204;-49
2023/05/05 03:51:41;;;;;;;7.77;7.07;;;20.30;48.70;;;;;;4921292;29;20217;-53
2023/05/05 03:54:06;;;;;;;7.30;6.40;;;20.20;48.80;;;;;;4926990;29;20239;-49
2023/05/05 03:56:32;;;;;;;7.63;6.93;;;20.20;49.00;;;;;;4922353;29;20276;-48
2023/05/05 03:58:58;;;;;;;6.97;6.43;;;20.20;49.20;;;;;;4914194;29;20236;-52
2023/05/05 04:01:23;;;;;;;6.93;6.33;;;20.10;49.40;;;;;;4917606;29;20201;-50
2023/05/05 04:03:49;;;;;;;6.83;6.23;;;20.00;49.80;;;;;;4916838;29;20559;-50
2023/05/05 04:06:14;;;;;;;7.10;5.93;;;19.90;49.80;;;;;;4919969;29;20208;-51
2023/05/05 04:08:40;;;;;;;7.30;6.60;;;19.90;49.90;;;;;;4917048;29;20283;-48
2023/05/05 04:11:06;;;;;;;7.63;6.93;;;19.90;49.90;;;;;;4915795;29;20193;-50
2023/05/05 04:13:31;;;;;;;6.60;6.07;;;19.80;50.00;;;;;;4913784;29;20198;-51
2023/05/05 04:15:58;;;;;;;7.33;6.30;;;19.80;50.10;;;;;;4914976;29;20205;-51
2023/05/05 04:18:24;;;;;;;6.70;6.07;;;19.80;50.20;;;;;;4916287;29;20271;-50
2023/05/05 04:20:50;;;;;;;6.53;5.93;;;19.70;50.20;;;;;;4919279;29;20440;-55
2023/05/05 04:23:15;;;;;;;6.03;5.57;;;19.70;50.30;;;;;;4915913;29;20448;-49
2023/05/05 04:25:41;;;;;;;7.43;6.53;;;19.50;50.60;;;;;;4914259;29;20212;-50
2023/05/05 04:28:07;;;;;;;7.33;6.37;;;19.40;51.00;;;;;;4918242;29;20902;-49
2023/05/05 04:30:32;;;;;;;6.60;6.00;;;19.20;51.50;;;;;;4919038;29;20561;-50
2023/05/05 04:32:58;;;;;;;6.30;5.80;;;19.20;51.70;;;;;;4915800;29;20197;-50
2023/05/05 04:35:23;;;;;;;6.37;5.87;;;19.10;51.80;;;;;;4917681;29;20201;-49
2023/05/05 04:37:49;;;;;;;8.47;7.20;;;19.00;52.00;;;;;;4922490;29;20211;-52
2023/05/05 04:40:15;;;;;;;7.17;6.40;;;19.00;52.00;;;;;;4923046;29;20208;-49
2023/05/05 04:42:41;;;;;;;8.50;6.10;;;18.90;52.30;;;;;;4923763;29;20209;-50
2023/05/05 04:45:07;;;;;;;6.50;5.90;;;18.80;52.20;;;;;;4923217;29;20299;-49
2023/05/05 04:47:39;;;;;;;5.97;5.47;;;18.80;52.50;;;;;;4917252;29;20212;-55
2023/05/05 04:50:06;;;;;;;6.47;5.87;;;18.70;52.80;;;;;;4919845;29;20477;-49
2023/05/05 04:52:32;;;;;;;6.73;6.00;;;18.70;53.00;;;;;;4929705;29;20463;-49
2023/05/05 04:54:58;;;;;;;8.10;7.40;;;18.80;52.90;;;;;;4918233;29;20445;-51
2023/05/05 04:57:24;;;;;;;7.00;6.27;;;18.80;52.60;;;;;;4926335;29;20284;-48
2023/05/05 04:59:49;;;;;;;7.07;6.30;;;18.80;52.40;;;;;;4926142;29;20896;-50
2023/05/05 05:02:15;;;;;;;6.33;5.73;;;19.10;52.20;;;;;;4929650;29;20314;-49
2023/05/05 05:04:40;;;;;;;11.00;5.17;;;19.20;51.90;;;;;;4924105;29;20197;-55
2023/05/05 05:07:06;;;;;;;9.30;6.70;;;19.20;55.10;;;;;;4928797;29;20703;-53
2023/05/05 05:09:31;;;;;;;6.43;5.83;;;19.50;53.90;;;;;;4929113;29;20319;-50
2023/05/05 05:12:03;;;;;;;5.53;5.13;;;19.70;52.40;;;;;;4932834;29;20203;-50
2023/05/05 05:14:29;;;;;;;6.83;5.57;;;20.00;51.20;;;;;;4933270;29;20200;-50
2023/05/05 05:16:54;;;;;;;6.30;5.70;;;20.20;50.60;;;;;;4928869;29;20452;-51
2023/05/05 05:19:20;;;;;;;8.40;5.80;;;20.20;50.20;;;;;;4923339;29;20370;-52
2023/05/05 05:21:46;;;;;;;6.93;6.33;;;20.30;50.30;;;;;;4925372;29;20193;-54
2023/05/05 05:24:11;;;;;;;6.40;5.80;;;20.40;50.20;;;;;;4924309;29;20563;-51
2023/05/05 05:26:37;;;;;;;6.37;5.87;;;20.40;50.10;;;;;;4925078;29;20731;-54
2023/05/05 05:29:03;;;;;;;7.50;6.43;;;20.40;50.40;;;;;;4919072;29;20279;-54
2023/05/05 05:31:30;;;;;;;6.40;5.80;;;20.30;50.80;;;;;;4929081;29;20558;-54
2023/05/05 05:33:56;;;;;;;6.27;5.67;;;20.40;50.60;;;;;;4922977;29;20604;-53
2023/05/05 05:36:21;;;;;;;6.40;5.50;;;20.50;50.90;;;;;;4931021;29;20452;-54
2023/05/05 05:38:47;;;;;;;7.87;6.40;;;20.50;50.90;;;;;;4925442;29;20343;-53
2023/05/05 05:41:13;;;;;;;7.33;6.27;;;20.70;50.90;;;;;;4928893;29;20619;-54
2023/05/05 05:43:38;;;;;;;5.97;5.47;;;20.70;50.80;;;;;;4929597;29;20196;-52
2023/05/05 05:46:04;;;;;;;7.93;5.70;;;20.90;50.70;;;;;;4927909;29;20602;-56
2023/05/05 05:48:30;;;;;;;6.50;5.90;;;21.00;50.50;;;;;;4930605;29;20232;-54
2023/05/05 05:50:55;;;;;;;6.23;5.73;;;21.00;50.80;;;;;;4931753;29;20444;-53
2023/05/05 05:53:21;;;;;;;7.03;6.43;;;21.00;51.20;;;;;;4927939;29;20203;-53
2023/05/05 05:55:48;;;;;;;6.30;5.70;;;21.00;51.20;;;;;;4927343;29;20799;-54
2023/05/05 05:58:15;;;;;;;7.40;5.30;;;21.00;51.20;;;;;;4928619;29;20514;-55
2023/05/05 06:00:40;;;;;;;6.90;6.30;;;21.20;51.00;;;;;;4920869;29;20960;-50
2023/05/05 06:03:06;;;;;;;6.60;6.00;;;21.10;51.20;;;;;;4921414;29;20477;-53
2023/05/05 06:05:32;;;;;;;6.13;5.63;;;21.00;51.70;;;;;;4925400;29;20188;-54
2023/05/05 06:07:57;;;;;;;5.60;5.20;;;21.10;52.00;;;;;;4926807;29;20200;-55
2023/05/05 06:10:23;;;;;;;8.30;6.13;;;21.20;51.90;;;;;;4926380;29;20311;-55
2023/05/05 06:12:48;;;;;;;5.97;5.37;;;21.50;51.60;;;;;;4926985;29;20315;-54
2023/05/05 06:17:58;;;;;;;5.63;5.13;;;21.80;51.70;;;;;;4964111;23;20255;-51
2023/05/05 06:20:24;;;;;;;6.70;5.20;;;21.90;51.40;;;;;;4931154;29;20441;-52
2023/05/05 06:22:49;;;;;;;5.97;5.50;;;22.00;51.20;;;;;;4919935;29;20414;-53
2023/05/05 06:25:15;;;;;;;5.47;4.97;;;22.30;50.90;;;;;;4914818;29;20566;-50
2023/05/05 06:27:41;;;;;;;5.27;4.77;;;22.40;50.80;;;;;;4913674;29;20209;-51
2023/05/05 06:30:08;;;;;;;5.33;4.83;;;22.60;50.50;;;;;;4914140;29;20457;-51
2023/05/05 06:32:33;;;;;;;7.23;5.10;;;22.80;50.30;;;;;;4914043;29;20630;-51
2023/05/05 06:34:59;;;;;;;5.03;4.53;;;22.80;50.30;;;;;;4924271;29;20433;-52
2023/05/05 06:37:25;;;;;;;5.23;4.80;;;22.80;50.40;;;;;;4914103;29;20197;-51
2023/05/05 06:39:50;;;;;;;5.80;4.67;;;22.80;50.60;;;;;;4914590;29;20688;-51
2023/05/05 06:42:16;;;;;;;6.20;5.60;;;22.90;50.30;;;;;;4914611;29;20205;-52
2023/05/05 06:44:41;;;;;;;8.33;4.77;;;22.90;50.50;;;;;;4914318;29;20225;-51
2023/05/05 06:47:07;;;;;;;8.43;6.03;;;22.90;51.00;;;;;;4912261;29;20207;-50
2023/05/05 06:49:32;;;;;;;7.13;4.50;;;23.00;50.60;;;;;;4914643;29;20198;-51
2023/05/05 06:51:58;;;;;;;5.33;4.83;;;23.10;50.20;;;;;;4919861;29;20228;-51
2023/05/05 06:54:24;;;;;;;4.63;4.23;;;23.10;50.40;;;;;;4931868;29;20197;-51
2023/05/05 06:56:49;;;;;;;7.23;5.13;;;23.00;51.40;;;;;;4932064;29;21200;-51
2023/05/05 06:59:15;;;;;;;4.70;4.30;;;22.80;51.40;;;;;;4926724;29;20272;-50
2023/05/05 07:01:41;;;;;;;7.10;4.37;;;23.00;50.80;;;;;;4914274;29;20208;-51
2023/05/05 07:04:06;;;;;;;6.40;5.80;;;23.20;50.70;;;;;;4915788;29;20316;-52
2023/05/05 07:06:32;;;;;;;5.93;5.43;;;23.40;50.70;;;;;;4919540;29;20231;-54
2023/05/05 07:08:58;;;;;;;5.13;4.73;;;23.50;50.50;;;;;;4925097;29;20201;-51
2023/05/05 07:11:23;;;;;;;5.70;5.10;;;23.40;50.50;;;;;;4917932;29;20479;-51
2023/05/05 07:13:49;;;;;;;5.90;5.30;;;23.40;50.70;;;;;;4914151;29;20661;-51
2023/05/05 07:16:14;;;;;;;5.77;5.10;;;23.40;50.20;;;;;;4916297;29;20239;-51
2023/05/05 07:18:40;;;;;;;5.83;5.30;;;23.50;50.00;;;;;;4931972;29;20233;-52
2023/05/05 07:21:05;;;;;;;7.90;5.50;;;23.60;50.20;;;;;;4919089;29;20272;-52
2023/05/05 07:23:31;;;;;;;5.63;5.13;;;23.70;49.90;;;;;;4914252;29;20280;-54
2023/05/05 07:25:58;;;;;;;6.07;5.50;;;23.90;49.40;;;;;;4926860;29;20287;-52
2023/05/05 07:28:23;;;;;;;5.70;5.17;;;24.00;50.00;;;;;;4933019;29;20432;-51
2023/05/05 07:30:50;;;;;;;5.43;4.93;;;24.10;49.70;;;;;;4932895;29;20946;-51
2023/05/05 07:33:17;;;;;;;5.47;5.00;;;24.00;50.00;;;;;;4933205;29;20665;-50
2023/05/05 07:35:43;;;;;;;4.40;4.00;;;24.10;50.30;;;;;;4932684;29;20448;-54
2023/05/05 07:38:09;;;;;;;4.30;4.00;;;24.20;50.20;;;;;;4933004;29;20436;-52
2023/05/05 07:40:34;;;;;;;4.77;4.23;;;24.40;49.30;;;;;;4932982;29;20475;-51
2023/05/05 07:43:00;;;;;;;4.83;4.40;;;24.60;48.70;;;;;;4931264;29;20216;-53
2023/05/05 07:45:27;;;;;;;6.00;4.60;;;24.80;48.40;;;;;;4935267;29;20193;-51
2023/05/05 07:47:53;;;;;;;4.50;4.10;;;24.80;48.10;;;;;;4935758;29;20200;-49
2023/05/05 07:50:19;;;;;;;4.03;3.70;;;24.80;48.10;;;;;;4935970;29;20902;-53
2023/05/05 07:52:45;;;;;;;4.70;4.00;;;24.80;48.30;;;;;;4930351;29;20200;-51
2023/05/05 07:55:10;;;;;;;3.97;3.60;;;24.70;48.40;;;;;;4936003;29;20783;-52
2023/05/05 07:57:36;;;;;;;8.37;4.07;;;24.80;49.00;;;;;;4935755;29;20252;-54
2023/05/05 08:00:02;;;;;;;4.40;3.50;;;24.70;48.40;;;;;;4934911;29;20239;-51
2023/05/05 08:02:28;;;;;;;4.87;3.00;;;24.90;48.40;;;;;;4927830;29;20209;-52
2023/05/05 08:04:53;;;;;;;5.07;3.73;;;25.00;48.10;;;;;;4925176;29;20205;-53
2023/05/05 08:07:19;;;;;;;3.70;3.40;;;25.00;48.70;;;;;;4930325;29;20204;-53
2023/05/05 08:09:44;;;;;;;4.47;3.37;;;25.10;48.40;;;;;;4930871;29;20192;-56
2023/05/05 08:12:11;;;;;;;3.70;3.33;;;25.10;48.20;;;;;;4930768;29;20201;-55
2023/05/05 08:14:38;;;;;;;4.37;3.97;;;25.10;47.90;;;;;;4934653;29;21041;-55
2023/05/05 08:17:04;;;;;;;5.73;3.17;;;25.20;47.80;;;;;;4924896;29;20476;-55
2023/05/05 08:19:30;;;;;;;4.23;3.20;;;25.20;48.10;;;;;;4931769;29;20492;-55
2023/05/05 08:21:55;;;;;;;3.43;2.60;;;24.80;47.90;;;;;;4932411;29;20205;-55
2023/05/05 08:24:21;;;;;;;3.00;2.80;;;24.80;48.30;;;;;;4929276;29;20204;-54
2023/05/05 08:26:46;;;;;;;4.03;2.50;;;24.30;48.40;;;;;;4933807;29;20256;-55
2023/05/05 08:29:12;;;;;;;3.13;2.47;;;24.50;48.90;;;;;;4920379;29;20205;-55
2023/05/05 08:31:37;;;;;;;5.77;3.00;;;24.60;49.00;;;;;;4926204;29;20200;-53
2023/05/05 08:34:04;;;;;;;2.70;2.50;;;24.70;48.90;;;;;;4924444;29;20276;-54
2023/05/05 08:36:31;;;;;;;3.00;2.80;;;24.70;48.90;;;;;;4930819;29;20672;-54
2023/05/05 08:38:56;;;;;;;8.67;2.80;;;24.70;49.10;;;;;;4923387;29;20488;-54
2023/05/05 08:41:22;;;;;;;5.30;2.57;;;24.70;49.30;;;;;;4924284;29;20466;-53
2023/05/05 08:43:49;;;;;;;3.37;3.07;;;24.40;50.10;;;;;;4922983;29;20250;-55
2023/05/05 08:46:15;;;;;;;3.60;2.63;;;24.50;50.90;;;;;;4924410;29;20235;-55
2023/05/05 08:48:43;;;;;;;3.40;3.03;;;24.50;51.90;;;;;;4925608;29;20453;-55
2023/05/05 08:51:12;;;;;;;4.73;3.90;;;24.60;52.20;;;;;;4931370;29;20531;-55
2023/05/05 08:54:02;;;;;;;5.30;3.00;;;24.60;52.10;;;;;;4920661;29;20457;-54
2023/05/05 08:56:40;;;;;;;6.87;3.57;;;24.70;52.70;;;;;;4923896;29;20451;-52
2023/05/05 08:59:07;;;;;;;4.07;3.67;;;24.80;53.10;;;;;;4932911;29;20500;-55
2023/05/05 09:01:34;;;;;;;3.90;3.60;;;24.70;52.50;;;;;;4928651;29;20504;-52
2023/05/05 09:04:03;;;;;;;4.10;3.33;;;24.80;52.10;;;;;;4933089;29;21222;-55
2023/05/05 09:06:31;;;;;;;6.30;3.40;;;24.80;52.20;;;;;;4922229;29;20458;-53
2023/05/05 09:08:56;;;;;;;8.43;4.70;;;24.80;52.80;;;;;;4927232;29;20508;-54
2023/05/05 09:11:22;;;;;;;5.23;4.30;;;24.80;53.10;;;;;;4930992;29;20936;-53
2023/05/05 09:13:48;;;;;;;7.53;4.50;;;24.80;53.30;;;;;;4927011;29;20583;-53
2023/05/05 09:16:14;;;;;;;6.73;4.47;;;24.80;53.30;;;;;;4926411;29;20289;-53
2023/05/05 09:18:41;;;;;;;5.83;4.70;;;24.80;53.30;;;;;;4926485;29;20492;-53
2023/05/05 09:21:24;;;;;;;4.30;3.90;;;24.80;53.10;;;;;;4926236;29;20228;-52
2023/05/05 09:24:10;;;;;;;5.40;4.03;;;24.80;52.70;;;;;;4917880;29;20516;-53
2023/05/05 09:26:38;;;;;;;3.40;2.97;;;24.70;53.30;;;;;;4934203;29;20535;-53
2023/05/05 09:29:04;;;;;;;3.20;2.90;;;24.40;53.40;;;;;;4933033;29;20440;-54
2023/05/05 09:31:30;;;;;;;4.67;2.60;;;24.50;53.30;;;;;;4923416;29;20455;-54
2023/05/05 09:33:59;;;;;;;3.57;3.27;;;24.60;53.10;;;;;;4931501;29;20451;-53
2023/05/05 09:36:48;;;;;;;3.00;2.43;;;24.60;52.80;;;;;;4914913;29;20429;-52
2023/05/05 09:39:18;;;;;;;2.70;2.50;;;24.80;52.80;;;;;;4929267;29;20503;-51
2023/05/05 09:41:44;;;;;;;3.10;2.80;;;24.80;53.10;;;;;;4931365;29;20449;-52
2023/05/05 09:44:11;;;;;;;3.93;3.13;;;24.60;52.50;;;;;;4927023;29;21007;-54
2023/05/05 09:46:47;;;;;;;4.63;3.30;;;24.70;52.40;;;;;;4920636;29;21008;-50
2023/05/05 09:49:18;;;;;;;2.90;2.70;;;24.80;52.10;;;;;;4913771;29;20996;-56
2023/05/05 09:51:44;;;;;;;4.47;2.87;;;25.00;52.10;;;;;;4927292;29;20499;-53
2023/05/05 09:54:23;;;;;;;3.37;2.73;;;25.00;51.30;;;;;;4920566;29;21127;-54
2023/05/05 09:56:49;;;;;;;3.37;2.10;;;25.00;50.80;;;;;;4929710;29;20449;-55
2023/05/05 09:59:15;;;;;;;2.97;2.33;;;25.10;50.50;;;;;;4928695;29;20496;-54
2023/05/05 10:01:42;;;;;;;3.13;2.60;;;25.20;50.70;;;;;;4929411;29;20519;-54
2023/05/05 10:04:25;;;;;;;3.00;2.33;;;25.20;50.50;;;;;;4931972;29;20248;-54
2023/05/05 10:06:50;;;;;;;3.30;2.53;;;25.30;50.00;;;;;;4920762;29;20434;-54
2023/05/05 10:09:16;;;;;;;2.00;1.80;;;25.20;49.70;;;;;;4923904;29;20445;-52
2023/05/05 10:11:45;;;;;;;3.07;2.40;;;25.30;49.70;;;;;;4916798;29;20205;-54
2023/05/05 10:14:16;;;;;;;5.03;2.90;;;25.50;50.00;;;;;;4919929;29;20208;-53
2023/05/05 10:16:53;;;;;;;5.77;2.50;;;25.70;49.60;;;;;;4932862;29;20476;-54
2023/05/05 10:19:22;;;;;;;6.60;2.30;;;25.90;48.20;;;;;;4929022;29;20639;-54
2023/05/05 10:21:53;;;;;;;2.87;2.63;;;25.90;46.90;;;;;;4924824;29;20457;-51
2023/05/05 10:24:33;;;;;;;2.80;2.27;;;26.00;46.80;;;;;;4919261;29;20600;-54
2023/05/05 10:27:06;;;;;;;2.47;2.00;;;26.20;47.40;;;;;;4924364;29;20858;-53
2023/05/05 10:30:05;;;;;;;3.80;2.00;;;26.20;47.00;;;;;;4928902;29;20448;-54
2023/05/05 10:32:43;;;;;;;2.23;2.03;;;26.40;46.00;;;;;;4918767;29;20462;-54
2023/05/05 10:35:12;;;;;;;10.13;4.10;;;26.50;46.10;;;;;;4928020;28;20457;-54
2023/05/05 10:37:38;;;;;;;5.63;2.60;;;26.50;45.50;;;;;;4930622;29;20507;-56
2023/05/05 10:40:04;;;;;;;2.50;2.20;;;26.60;45.20;;;;;;4922056;29;20480;-53
2023/05/05 10:42:30;;;;;;;3.50;1.97;;;26.70;45.30;;;;;;4924638;29;20481;-53
2023/05/05 10:44:56;;;;;;;6.30;2.57;;;26.90;45.00;;;;;;4922139;29;20497;-55
2023/05/05 10:47:23;;;;;;;2.50;2.30;;;26.90;44.30;;;;;;4926683;29;20438;-54
2023/05/05 10:50:15;;;;;;;3.40;2.50;;;26.90;43.80;;;;;;4922013;29;20636;-54
2023/05/05 10:53:13;;;;;;;7.40;3.37;;;27.00;44.20;;;;;;4916571;29;20438;-54
2023/05/05 10:55:55;;;;;;;3.10;2.10;;;27.00;44.20;;;;;;4917336;29;20568;-55
2023/05/05 10:58:32;;;;;;;3.13;2.30;;;27.10;44.20;;;;;;4924047;29;20486;-54
2023/05/05 11:00:58;;;;;;;2.20;2.00;;;27.20;43.90;;;;;;4918973;29;20466;-54
2023/05/05 11:03:24;;;;;;;3.73;2.30;;;27.20;43.80;;;;;;4924354;29;20446;-54
2023/05/05 11:06:06;;;;;;;4.03;2.37;;;27.20;43.70;;;;;;4927439;29;20200;-54
2023/05/05 11:08:42;;;;;;;2.50;2.27;;;27.20;44.30;;;;;;4927372;29;20493;-55
2023/05/05 11:11:11;;;;;;;2.57;2.10;;;27.30;43.80;;;;;;4940634;29;20450;-54
2023/05/05 11:13:40;;;;;;;5.27;2.03;;;27.30;43.60;;;;;;4929236;29;20512;-54
2023/05/05 11:16:41;;;;;;;3.17;2.03;;;27.30;43.50;;;;;;4927119;29;20503;-53
2023/05/05 11:19:42;;;;;;;2.37;2.17;;;27.40;43.60;;;;;;4927447;29;20492;-54
2023/05/05 11:22:07;;;;;;;2.33;2.23;;;27.40;44.00;;;;;;4925858;29;20528;-54
2023/05/05 11:24:35;;;;;;;2.93;2.43;;;27.40;44.60;;;;;;4927904;29;20535;-54
2023/05/05 11:27:01;;;;;;;2.40;2.20;;;27.40;45.10;;;;;;4925437;29;20574;-54
2023/05/05 11:29:26;;;;;;;2.20;2.10;;;27.40;45.60;;;;;;4926062;29;20449;-55
2023/05/05 11:32:11;;;;;;;2.63;2.40;;;27.40;46.30;;;;;;4930025;29;20451;-54
2023/05/05 11:34:47;;;;;;;2.27;2.07;;;27.40;46.30;;;;;;4928720;29;20215;-54
2023/05/05 11:37:15;;;;;;;3.53;2.90;;;27.40;46.40;;;;;;4929223;29;20856;-55
2023/05/05 11:40:02;;;;;;;3.07;2.17;;;27.40;46.80;;;;;;4927484;29;20492;-54
2023/05/05 11:42:29;;;;;;;3.63;3.33;;;27.50;47.80;;;;;;4933468;29;20796;-53
2023/05/05 11:44:54;;;;;;;2.53;2.33;;;27.50;48.40;;;;;;4935884;29;20432;-54
2023/05/05 11:47:20;;;;;;;3.83;2.53;;;27.50;49.10;;;;;;4929025;29;20979;-55
2023/05/05 11:49:46;;;;;;;4.13;2.30;;;27.50;49.50;;;;;;4921221;29;20189;-55
2023/05/05 11:52:13;;;;;;;3.03;2.63;;;27.30;50.90;;;;;;4929759;29;20272;-56
2023/05/05 11:54:47;;;;;;;3.87;2.70;;;27.40;50.40;;;;;;4931103;29;20207;-56
2023/05/05 11:57:14;;;;;;;2.53;2.33;;;27.40;50.40;;;;;;4928919;29;20448;-55
2023/05/05 12:00:00;;;;;;;3.20;3.00;;;27.50;50.10;;;;;;4928085;29;21551;-55
2023/05/05 12:02:27;;;;;;;2.93;2.40;;;27.40;49.80;;;;;;4935301;29;20439;-55
2023/05/05 12:04:53;;;;;;;3.23;2.97;;;27.40;49.50;;;;;;4927915;29;20458;-55
2023/05/05 12:07:20;;;;;;;2.80;2.60;;;27.50;48.10;;;;;;4929046;29;20443;-54
2023/05/05 12:09:47;;;;;;;2.60;2.40;;;27.50;47.10;;;;;;4919950;29;20193;-56
2023/05/05 12:12:15;;;;;;;2.50;2.30;;;27.70;47.10;;;;;;4924787;29;20461;-55
2023/05/05 12:14:51;;;;;;;3.10;2.80;;;27.70;47.30;;;;;;4924880;29;20445;-56
2023/05/05 12:17:19;;;;;;;2.40;2.20;;;27.80;46.40;;;;;;4922856;29;20540;-55
2023/05/05 12:19:50;;;;;;;3.10;2.13;;;27.80;46.10;;;;;;4930153;29;20503;-54
2023/05/05 12:22:23;;;;;;;2.53;2.27;;;27.90;44.00;;;;;;4925439;29;20449;-55
2023/05/05 12:24:56;;;;;;;2.63;2.43;;;28.00;44.00;;;;;;4927773;29;21030;-54
2023/05/05 12:27:22;;;;;;;3.07;2.40;;;28.10;43.50;;;;;;4930874;29;20488;-54
2023/05/05 12:29:48;;;;;;;3.00;2.20;;;28.10;44.00;;;;;;4932949;29;20460;-53
2023/05/05 12:32:26;;;;;;;3.50;1.90;;;28.20;44.20;;;;;;4928295;29;21295;-55
2023/05/05 12:34:55;;;;;;;4.90;2.73;;;28.30;42.40;;;;;;4930451;29;20232;-53
2023/05/05 12:37:22;;;;;;;2.60;2.20;;;28.30;42.50;;;;;;4928550;29;20440;-54
2023/05/05 12:39:49;;;;;;;2.50;2.00;;;28.50;42.70;;;;;;4931412;29;21015;-55
2023/05/05 12:42:15;;;;;;;2.50;2.30;;;28.60;42.40;;;;;;4927148;29;20957;-55
2023/05/05 12:44:43;;;;;;;3.90;3.07;;;28.50;41.70;;;;;;4920954;29;20456;-53
2023/05/05 12:47:09;;;;;;;3.27;2.53;;;28.50;42.20;;;;;;4926786;29;20446;-53
2023/05/05 12:49:49;;;;;;;2.40;2.03;;;28.50;42.30;;;;;;4925260;29;20821;-53
2023/05/05 12:52:15;;;;;;;2.77;2.57;;;28.60;41.90;;;;;;4929339;29;20542;-54
2023/05/05 12:54:59;;;;;;;4.13;2.67;;;28.60;42.50;;;;;;4930754;29;20470;-55
2023/05/05 12:57:25;;;;;;;3.40;2.63;;;28.70;42.30;;;;;;4927027;29;20991;-54